sensor_id;sensor_type;location;lat;lon;timestamp;P1;durP1;ratioP1;P2;durP2;ratioP2
46355;SDS011;32066;49.474;11.106;2024-03-22T00:01:50;16.92;;;12.23;;
46355;SDS011;32066;49.474;11.106;2024-03-22T00:04:16;15.85;;;12.38;;
46355;SDS011;32066;49.474;11.106;2024-03-22T00:06:45;17.65;;;12.63;;
46355;SDS011;32066;49.474;11.106;2024-03-22T00:09:14;16.40;;;11.93;;
46355;SDS011;32066;49.474;11.106;2024-03-22T00:11:40;18.73;;;12.23;;
46355;SDS011;32066;49.474;11.106;2024-03-22T00:14:07;17.20;;;12.27;;
46355;SDS011;32066;49.474;11.106;2024-03-22T00:16:34;16.45;;;11.90;;
46355;SDS011;32066;49.474;11.106;2024-03-22T00:19:00;23.70;;;12.43;;
46355;SDS011;32066;49.474;11.106;2024-03-22T00:21:27;18.73;;;12.18;;
46355;SDS011;32066;49.474;11.106;2024-03-22T00:23:56;15.85;;;12.15;;
46355;SDS011;32066;49.474;11.106;2024-03-22T00:26:22;15.63;;;11.50;;
46355;SDS011;32066;49.474;11.106;2024-03-22T00:28:48;17.83;;;12.02;;
46355;SDS011;32066;49.474;11.106;2024-03-22T00:31:14;18.80;;;11.73;;
46355;SDS011;32066;49.474;11.106;2024-03-22T00:33:41;16.77;;;12.13;;
46355;SDS011;32066;49.474;11.106;2024-03-22T00:36:08;15.90;;;12.05;;
46355;SDS011;32066;49.474;11.106;2024-03-22T00:38:34;17.00;;;12.52;;
46355;SDS011;32066;49.474;11.106;2024-03-22T00:41:03;19.27;;;12.50;;
46355;SDS011;32066;49.474;11.106;2024-03-22T00:43:29;17.40;;;12.35;;
46355;SDS011;32066;49.474;11.106;2024-03-22T00:45:55;16.35;;;11.82;;
46355;SDS011;32066;49.474;11.106;2024-03-22T00:48:21;19.77;;;13.10;;
46355;SDS011;32066;49.474;11.106;2024-03-22T00:50:47;16.65;;;12.15;;
46355;SDS011;32066;49.474;11.106;2024-03-22T00:53:13;17.88;;;12.60;;
46355;SDS011;32066;49.474;11.106;2024-03-22T00:55:39;18.58;;;12.73;;
46355;SDS011;32066;49.474;11.106;2024-03-22T00:58:08;17.17;;;12.10;;
46355;SDS011;32066;49.474;11.106;2024-03-22T01:00:34;18.55;;;12.98;;
46355;SDS011;32066;49.474;11.106;2024-03-22T01:03:01;19.40;;;13.65;;
46355;SDS011;32066;49.474;11.106;2024-03-22T01:05:27;15.25;;;12.00;;
46355;SDS011;32066;49.474;11.106;2024-03-22T01:07:53;18.25;;;12.70;;
46355;SDS011;32066;49.474;11.106;2024-03-22T01:10:19;21.17;;;13.48;;
46355;SDS011;32066;49.474;11.106;2024-03-22T01:12:45;18.40;;;12.10;;
46355;SDS011;32066;49.474;11.106;2024-03-22T01:15:13;17.70;;;12.20;;
46355;SDS011;32066;49.474;11.106;2024-03-22T01:17:39;18.88;;;12.50;;
46355;SDS011;32066;49.474;11.106;2024-03-22T01:20:06;16.17;;;12.02;;
46355;SDS011;32066;49.474;11.106;2024-03-22T01:22:33;18.50;;;12.50;;
46355;SDS011;32066;49.474;11.106;2024-03-22T01:24:59;18.02;;;12.75;;
46355;SDS011;32066;49.474;11.106;2024-03-22T01:27:25;17.30;;;12.20;;
46355;SDS011;32066;49.474;11.106;2024-03-22T01:29:51;18.00;;;11.75;;
46355;SDS011;32066;49.474;11.106;2024-03-22T01:32:19;18.73;;;12.50;;
46355;SDS011;32066;49.474;11.106;2024-03-22T01:34:46;15.77;;;11.68;;
46355;SDS011;32066;49.474;11.106;2024-03-22T01:37:12;16.75;;;11.10;;
46355;SDS011;32066;49.474;11.106;2024-03-22T01:39:38;15.18;;;11.38;;
46355;SDS011;32066;49.474;11.106;2024-03-22T01:42:04;16.15;;;10.95;;
46355;SDS011;32066;49.474;11.106;2024-03-22T01:44:31;16.05;;;10.60;;
46355;SDS011;32066;49.474;11.106;2024-03-22T01:46:58;16.83;;;10.13;;
46355;SDS011;32066;49.474;11.106;2024-03-22T01:49:27;15.65;;;10.38;;
46355;SDS011;32066;49.474;11.106;2024-03-22T01:51:53;14.70;;;10.02;;
46355;SDS011;32066;49.474;11.106;2024-03-22T01:54:20;14.45;;;10.02;;
46355;SDS011;32066;49.474;11.106;2024-03-22T01:56:46;15.65;;;10.25;;
46355;SDS011;32066;49.474;11.106;2024-03-22T01:59:13;15.52;;;10.35;;
46355;SDS011;32066;49.474;11.106;2024-03-22T02:01:39;14.05;;;9.07;;
46355;SDS011;32066;49.474;11.106;2024-03-22T02:04:06;15.30;;;9.80;;
46355;SDS011;32066;49.474;11.106;2024-03-22T02:06:34;13.70;;;9.35;;
46355;SDS011;32066;49.474;11.106;2024-03-22T02:09:00;12.60;;;8.95;;
46355;SDS011;32066;49.474;11.106;2024-03-22T02:11:26;12.52;;;9.20;;
46355;SDS011;32066;49.474;11.106;2024-03-22T02:13:53;15.15;;;9.38;;
46355;SDS011;32066;49.474;11.106;2024-03-22T02:16:19;16.13;;;9.30;;
46355;SDS011;32066;49.474;11.106;2024-03-22T02:18:45;15.88;;;10.25;;
46355;SDS011;32066;49.474;11.106;2024-03-22T02:21:12;16.85;;;9.73;;
46355;SDS011;32066;49.474;11.106;2024-03-22T02:23:40;13.98;;;9.45;;
46355;SDS011;32066;49.474;11.106;2024-03-22T02:26:07;13.75;;;10.15;;
46355;SDS011;32066;49.474;11.106;2024-03-22T02:28:33;14.63;;;9.57;;
46355;SDS011;32066;49.474;11.106;2024-03-22T02:31:01;14.38;;;10.05;;
46355;SDS011;32066;49.474;11.106;2024-03-22T02:33:27;15.15;;;9.90;;
46355;SDS011;32066;49.474;11.106;2024-03-22T02:35:53;15.07;;;10.27;;
46355;SDS011;32066;49.474;11.106;2024-03-22T02:38:19;15.63;;;9.77;;
46355;SDS011;32066;49.474;11.106;2024-03-22T02:40:49;14.45;;;9.80;;
46355;SDS011;32066;49.474;11.106;2024-03-22T02:43:17;16.08;;;10.75;;
46355;SDS011;32066;49.474;11.106;2024-03-22T02:45:43;15.18;;;10.70;;
46355;SDS011;32066;49.474;11.106;2024-03-22T02:48:09;14.43;;;9.50;;
46355;SDS011;32066;49.474;11.106;2024-03-22T02:50:35;16.83;;;9.80;;
46355;SDS011;32066;49.474;11.106;2024-03-22T02:53:02;15.30;;;9.48;;
46355;SDS011;32066;49.474;11.106;2024-03-22T02:55:28;13.23;;;9.93;;
46355;SDS011;32066;49.474;11.106;2024-03-22T02:57:57;14.65;;;9.73;;
46355;SDS011;32066;49.474;11.106;2024-03-22T03:00:24;12.55;;;9.13;;
46355;SDS011;32066;49.474;11.106;2024-03-22T03:02:50;11.93;;;9.20;;
46355;SDS011;32066;49.474;11.106;2024-03-22T03:05:16;14.95;;;9.45;;
46355;SDS011;32066;49.474;11.106;2024-03-22T03:07:42;12.60;;;8.90;;
46355;SDS011;32066;49.474;11.106;2024-03-22T03:10:08;14.52;;;10.07;;
46355;SDS011;32066;49.474;11.106;2024-03-22T03:12:34;13.30;;;9.50;;
46355;SDS011;32066;49.474;11.106;2024-03-22T03:15:03;12.68;;;9.65;;
46355;SDS011;32066;49.474;11.106;2024-03-22T03:17:29;13.05;;;9.45;;
46355;SDS011;32066;49.474;11.106;2024-03-22T03:19:55;13.68;;;9.50;;
46355;SDS011;32066;49.474;11.106;2024-03-22T03:22:22;14.18;;;9.95;;
46355;SDS011;32066;49.474;11.106;2024-03-22T03:24:48;14.10;;;9.90;;
46355;SDS011;32066;49.474;11.106;2024-03-22T03:27:14;15.50;;;10.65;;
46355;SDS011;32066;49.474;11.106;2024-03-22T03:29:40;15.23;;;10.35;;
46355;SDS011;32066;49.474;11.106;2024-03-22T03:32:08;13.50;;;9.95;;
46355;SDS011;32066;49.474;11.106;2024-03-22T03:34:34;13.07;;;9.60;;
46355;SDS011;32066;49.474;11.106;2024-03-22T03:37:01;14.27;;;9.80;;
46355;SDS011;32066;49.474;11.106;2024-03-22T03:39:27;14.48;;;9.38;;
46355;SDS011;32066;49.474;11.106;2024-03-22T03:41:53;14.75;;;10.30;;
46355;SDS011;32066;49.474;11.106;2024-03-22T03:44:20;14.55;;;10.00;;
46355;SDS011;32066;49.474;11.106;2024-03-22T03:46:46;15.27;;;10.40;;
46355;SDS011;32066;49.474;11.106;2024-03-22T03:49:14;16.80;;;10.52;;
46355;SDS011;32066;49.474;11.106;2024-03-22T03:51:40;14.00;;;10.00;;
46355;SDS011;32066;49.474;11.106;2024-03-22T03:54:07;15.27;;;10.48;;
46355;SDS011;32066;49.474;11.106;2024-03-22T03:56:33;16.20;;;10.55;;
46355;SDS011;32066;49.474;11.106;2024-03-22T03:58:59;14.68;;;9.95;;
46355;SDS011;32066;49.474;11.106;2024-03-22T04:01:25;12.45;;;9.13;;
46355;SDS011;32066;49.474;11.106;2024-03-22T04:03:51;15.50;;;9.55;;
46355;SDS011;32066;49.474;11.106;2024-03-22T04:06:19;12.65;;;9.25;;
46355;SDS011;32066;49.474;11.106;2024-03-22T04:08:45;14.00;;;9.02;;
46355;SDS011;32066;49.474;11.106;2024-03-22T04:11:11;13.57;;;9.43;;
46355;SDS011;32066;49.474;11.106;2024-03-22T04:13:37;13.43;;;9.27;;
46355;SDS011;32066;49.474;11.106;2024-03-22T04:16:04;13.32;;;9.52;;
46355;SDS011;32066;49.474;11.106;2024-03-22T04:18:30;12.82;;;9.23;;
46355;SDS011;32066;49.474;11.106;2024-03-22T04:20:57;12.90;;;9.43;;
46355;SDS011;32066;49.474;11.106;2024-03-22T04:23:26;14.30;;;9.93;;
46355;SDS011;32066;49.474;11.106;2024-03-22T04:25:53;13.00;;;9.18;;
46355;SDS011;32066;49.474;11.106;2024-03-22T04:28:20;14.85;;;10.10;;
46355;SDS011;32066;49.474;11.106;2024-03-22T04:30:53;13.95;;;10.38;;
46355;SDS011;32066;49.474;11.106;2024-03-22T04:33:21;15.48;;;10.32;;
46355;SDS011;32066;49.474;11.106;2024-03-22T04:35:47;15.98;;;10.63;;
46355;SDS011;32066;49.474;11.106;2024-03-22T04:38:13;16.52;;;10.05;;
46355;SDS011;32066;49.474;11.106;2024-03-22T04:40:42;14.85;;;9.60;;
46355;SDS011;32066;49.474;11.106;2024-03-22T04:43:08;13.95;;;9.68;;
46355;SDS011;32066;49.474;11.106;2024-03-22T04:45:34;14.38;;;9.52;;
46355;SDS011;32066;49.474;11.106;2024-03-22T04:48:01;13.73;;;9.63;;
46355;SDS011;32066;49.474;11.106;2024-03-22T04:50:27;13.25;;;9.60;;
46355;SDS011;32066;49.474;11.106;2024-03-22T04:52:54;13.75;;;9.55;;
46355;SDS011;32066;49.474;11.106;2024-03-22T04:55:20;16.73;;;10.30;;
46355;SDS011;32066;49.474;11.106;2024-03-22T04:57:49;17.10;;;10.73;;
46355;SDS011;32066;49.474;11.106;2024-03-22T05:00:15;14.88;;;10.63;;
46355;SDS011;32066;49.474;11.106;2024-03-22T05:02:42;15.63;;;9.98;;
46355;SDS011;32066;49.474;11.106;2024-03-22T05:05:08;14.60;;;10.32;;
46355;SDS011;32066;49.474;11.106;2024-03-22T05:07:34;13.68;;;9.73;;
46355;SDS011;32066;49.474;11.106;2024-03-22T05:10:01;16.02;;;9.88;;
46355;SDS011;32066;49.474;11.106;2024-03-22T05:12:27;16.30;;;10.40;;
46355;SDS011;32066;49.474;11.106;2024-03-22T05:14:56;16.98;;;10.40;;
46355;SDS011;32066;49.474;11.106;2024-03-22T05:17:22;14.52;;;10.45;;
46355;SDS011;32066;49.474;11.106;2024-03-22T05:19:48;14.90;;;10.15;;
46355;SDS011;32066;49.474;11.106;2024-03-22T05:22:14;15.38;;;10.63;;
46355;SDS011;32066;49.474;11.106;2024-03-22T05:24:40;15.15;;;10.27;;
46355;SDS011;32066;49.474;11.106;2024-03-22T05:27:06;16.40;;;10.15;;
46355;SDS011;32066;49.474;11.106;2024-03-22T05:29:32;17.38;;;10.35;;
46355;SDS011;32066;49.474;11.106;2024-03-22T05:32:01;16.02;;;10.70;;
46355;SDS011;32066;49.474;11.106;2024-03-22T05:34:27;17.98;;;11.38;;
46355;SDS011;32066;49.474;11.106;2024-03-22T05:36:53;14.77;;;10.52;;
46355;SDS011;32066;49.474;11.106;2024-03-22T05:39:19;16.23;;;10.70;;
46355;SDS011;32066;49.474;11.106;2024-03-22T05:41:45;16.48;;;10.95;;
46355;SDS011;32066;49.474;11.106;2024-03-22T05:44:11;17.25;;;11.05;;
46355;SDS011;32066;49.474;11.106;2024-03-22T05:46:37;17.80;;;10.68;;
46355;SDS011;32066;49.474;11.106;2024-03-22T05:49:06;17.60;;;12.02;;
46355;SDS011;32066;49.474;11.106;2024-03-22T05:51:32;13.95;;;10.25;;
46355;SDS011;32066;49.474;11.106;2024-03-22T05:53:58;17.52;;;11.55;;
46355;SDS011;32066;49.474;11.106;2024-03-22T05:56:24;14.93;;;10.48;;
46355;SDS011;32066;49.474;11.106;2024-03-22T05:58:51;16.48;;;11.52;;
46355;SDS011;32066;49.474;11.106;2024-03-22T06:01:17;16.48;;;10.73;;
46355;SDS011;32066;49.474;11.106;2024-03-22T06:03:43;16.05;;;10.40;;
46355;SDS011;32066;49.474;11.106;2024-03-22T06:06:11;15.52;;;10.93;;
46355;SDS011;32066;49.474;11.106;2024-03-22T06:08:37;17.73;;;10.88;;
46355;SDS011;32066;49.474;11.106;2024-03-22T06:11:05;16.02;;;10.50;;
46355;SDS011;32066;49.474;11.106;2024-03-22T06:13:32;17.58;;;11.93;;
46355;SDS011;32066;49.474;11.106;2024-03-22T06:15:58;19.25;;;13.25;;
46355;SDS011;32066;49.474;11.106;2024-03-22T06:18:24;19.95;;;12.88;;
46355;SDS011;32066;49.474;11.106;2024-03-22T06:20:50;19.88;;;13.25;;
46355;SDS011;32066;49.474;11.106;2024-03-22T06:23:19;20.73;;;15.23;;
46355;SDS011;32066;49.474;11.106;2024-03-22T06:25:50;20.00;;;14.35;;
46355;SDS011;32066;49.474;11.106;2024-03-22T06:28:16;19.85;;;14.00;;
46355;SDS011;32066;49.474;11.106;2024-03-22T06:30:42;24.67;;;14.02;;
46355;SDS011;32066;49.474;11.106;2024-03-22T06:33:09;19.48;;;13.13;;
46355;SDS011;32066;49.474;11.106;2024-03-22T06:35:35;16.95;;;12.73;;
46355;SDS011;32066;49.474;11.106;2024-03-22T06:38:01;19.50;;;13.00;;
46355;SDS011;32066;49.474;11.106;2024-03-22T06:40:30;20.23;;;12.40;;
46355;SDS011;32066;49.474;11.106;2024-03-22T06:42:56;18.20;;;12.80;;
46355;SDS011;32066;49.474;11.106;2024-03-22T06:45:22;21.55;;;13.38;;
46355;SDS011;32066;49.474;11.106;2024-03-22T06:47:48;20.42;;;13.00;;
46355;SDS011;32066;49.474;11.106;2024-03-22T06:50:15;20.27;;;12.95;;
46355;SDS011;32066;49.474;11.106;2024-03-22T06:52:41;20.05;;;13.43;;
46355;SDS011;32066;49.474;11.106;2024-03-22T06:55:07;18.15;;;13.00;;
46355;SDS011;32066;49.474;11.106;2024-03-22T06:57:36;20.42;;;14.05;;
46355;SDS011;32066;49.474;11.106;2024-03-22T07:00:05;19.92;;;13.77;;
46355;SDS011;32066;49.474;11.106;2024-03-22T07:02:32;21.35;;;13.30;;
46355;SDS011;32066;49.474;11.106;2024-03-22T07:04:58;20.63;;;13.70;;
46355;SDS011;32066;49.474;11.106;2024-03-22T07:07:24;20.30;;;13.30;;
46355;SDS011;32066;49.474;11.106;2024-03-22T07:09:50;19.15;;;13.18;;
46355;SDS011;32066;49.474;11.106;2024-03-22T07:12:16;20.10;;;12.43;;
46355;SDS011;32066;49.474;11.106;2024-03-22T07:14:45;19.95;;;13.75;;
46355;SDS011;32066;49.474;11.106;2024-03-22T07:17:11;35.40;;;9.27;;
46355;SDS011;32066;49.474;11.106;2024-03-22T07:19:37;24.23;;;9.07;;
46355;SDS011;32066;49.474;11.106;2024-03-22T07:22:03;20.30;;;9.65;;
46355;SDS011;32066;49.474;11.106;2024-03-22T07:24:29;21.73;;;9.05;;
46355;SDS011;32066;49.474;11.106;2024-03-22T07:26:57;22.25;;;12.95;;
46355;SDS011;32066;49.474;11.106;2024-03-22T07:29:23;20.08;;;14.00;;
46355;SDS011;32066;49.474;11.106;2024-03-22T07:31:51;18.75;;;13.05;;
46355;SDS011;32066;49.474;11.106;2024-03-22T07:34:18;19.67;;;13.32;;
46355;SDS011;32066;49.474;11.106;2024-03-22T07:36:44;19.83;;;13.38;;
46355;SDS011;32066;49.474;11.106;2024-03-22T07:39:10;20.13;;;13.50;;
46355;SDS011;32066;49.474;11.106;2024-03-22T07:41:36;23.10;;;14.95;;
46355;SDS011;32066;49.474;11.106;2024-03-22T07:44:02;23.08;;;13.82;;
46355;SDS011;32066;49.474;11.106;2024-03-22T07:46:29;24.58;;;15.88;;
46355;SDS011;32066;49.474;11.106;2024-03-22T07:48:57;20.67;;;14.00;;
46355;SDS011;32066;49.474;11.106;2024-03-22T07:51:23;25.10;;;14.07;;
46355;SDS011;32066;49.474;11.106;2024-03-22T07:53:49;22.13;;;14.43;;
46355;SDS011;32066;49.474;11.106;2024-03-22T07:56:15;20.58;;;13.65;;
46355;SDS011;32066;49.474;11.106;2024-03-22T07:58:41;23.45;;;15.32;;
46355;SDS011;32066;49.474;11.106;2024-03-22T08:01:07;25.30;;;14.23;;
46355;SDS011;32066;49.474;11.106;2024-03-22T08:03:34;25.80;;;14.23;;
46355;SDS011;32066;49.474;11.106;2024-03-22T08:06:02;23.52;;;14.77;;
46355;SDS011;32066;49.474;11.106;2024-03-22T08:08:29;25.63;;;14.63;;
46355;SDS011;32066;49.474;11.106;2024-03-22T08:10:55;23.60;;;15.18;;
46355;SDS011;32066;49.474;11.106;2024-03-22T08:13:21;24.52;;;14.88;;
46355;SDS011;32066;49.474;11.106;2024-03-22T08:15:47;25.35;;;15.02;;
46355;SDS011;32066;49.474;11.106;2024-03-22T08:18:13;25.52;;;14.82;;
46355;SDS011;32066;49.474;11.106;2024-03-22T08:20:39;25.73;;;14.85;;
46355;SDS011;32066;49.474;11.106;2024-03-22T08:23:08;24.80;;;15.57;;
46355;SDS011;32066;49.474;11.106;2024-03-22T08:25:34;23.85;;;15.55;;
46355;SDS011;32066;49.474;11.106;2024-03-22T08:28:00;26.13;;;15.35;;
46355;SDS011;32066;49.474;11.106;2024-03-22T08:30:26;26.02;;;16.08;;
46355;SDS011;32066;49.474;11.106;2024-03-22T08:32:52;27.02;;;17.70;;
46355;SDS011;32066;49.474;11.106;2024-03-22T08:35:18;27.67;;;17.88;;
46355;SDS011;32066;49.474;11.106;2024-03-22T08:37:44;24.92;;;15.15;;
46355;SDS011;32066;49.474;11.106;2024-03-22T08:40:13;26.48;;;15.80;;
46355;SDS011;32066;49.474;11.106;2024-03-22T08:42:40;24.35;;;16.15;;
46355;SDS011;32066;49.474;11.106;2024-03-22T08:45:06;24.85;;;15.90;;
46355;SDS011;32066;49.474;11.106;2024-03-22T08:47:34;27.77;;;16.80;;
46355;SDS011;32066;49.474;11.106;2024-03-22T08:50:00;22.90;;;15.38;;
46355;SDS011;32066;49.474;11.106;2024-03-22T08:52:27;22.50;;;16.52;;
46355;SDS011;32066;49.474;11.106;2024-03-22T08:54:53;21.70;;;14.40;;
46355;SDS011;32066;49.474;11.106;2024-03-22T08:57:22;24.00;;;14.95;;
46355;SDS011;32066;49.474;11.106;2024-03-22T08:59:48;24.02;;;15.68;;
46355;SDS011;32066;49.474;11.106;2024-03-22T09:02:14;21.50;;;15.35;;
46355;SDS011;32066;49.474;11.106;2024-03-22T09:04:40;21.85;;;13.90;;
46355;SDS011;32066;49.474;11.106;2024-03-22T09:07:06;24.38;;;15.82;;
46355;SDS011;32066;49.474;11.106;2024-03-22T09:09:32;21.75;;;14.68;;
46355;SDS011;32066;49.474;11.106;2024-03-22T09:11:59;24.83;;;15.07;;
46355;SDS011;32066;49.474;11.106;2024-03-22T09:14:27;23.67;;;15.60;;
46355;SDS011;32066;49.474;11.106;2024-03-22T09:16:53;22.25;;;14.52;;
46355;SDS011;32066;49.474;11.106;2024-03-22T09:19:19;24.15;;;14.85;;
46355;SDS011;32066;49.474;11.106;2024-03-22T09:21:46;22.52;;;13.65;;
46355;SDS011;32066;49.474;11.106;2024-03-22T09:24:12;22.92;;;14.95;;
46355;SDS011;32066;49.474;11.106;2024-03-22T09:26:38;22.88;;;15.10;;
46355;SDS011;32066;49.474;11.106;2024-03-22T09:29:04;24.52;;;15.52;;
46355;SDS011;32066;49.474;11.106;2024-03-22T09:31:32;25.63;;;15.10;;
46355;SDS011;32066;49.474;11.106;2024-03-22T09:33:58;22.58;;;14.20;;
46355;SDS011;32066;49.474;11.106;2024-03-22T09:36:25;23.60;;;13.85;;
46355;SDS011;32066;49.474;11.106;2024-03-22T09:38:51;21.13;;;14.60;;
46355;SDS011;32066;49.474;11.106;2024-03-22T09:41:17;22.30;;;14.43;;
46355;SDS011;32066;49.474;11.106;2024-03-22T09:43:50;22.98;;;15.57;;
46355;SDS011;32066;49.474;11.106;2024-03-22T09:46:17;28.10;;;16.15;;
46355;SDS011;32066;49.474;11.106;2024-03-22T09:48:48;24.05;;;15.38;;
46355;SDS011;32066;49.474;11.106;2024-03-22T09:51:15;21.55;;;13.45;;
46355;SDS011;32066;49.474;11.106;2024-03-22T09:53:42;22.63;;;13.98;;
46355;SDS011;32066;49.474;11.106;2024-03-22T09:56:10;22.02;;;14.88;;
46355;SDS011;32066;49.474;11.106;2024-03-22T09:58:39;27.38;;;15.73;;
46355;SDS011;32066;49.474;11.106;2024-03-22T10:01:06;23.42;;;14.38;;
46355;SDS011;32066;49.474;11.106;2024-03-22T10:03:32;23.23;;;15.50;;
46355;SDS011;32066;49.474;11.106;2024-03-22T10:06:01;20.95;;;14.30;;
46355;SDS011;32066;49.474;11.106;2024-03-22T10:08:27;22.83;;;15.20;;
46355;SDS011;32066;49.474;11.106;2024-03-22T10:10:53;21.02;;;14.75;;
46355;SDS011;32066;49.474;11.106;2024-03-22T10:13:19;21.77;;;13.95;;
46355;SDS011;32066;49.474;11.106;2024-03-22T10:15:46;20.88;;;13.23;;
46355;SDS011;32066;49.474;11.106;2024-03-22T10:18:12;18.98;;;12.93;;
46355;SDS011;32066;49.474;11.106;2024-03-22T10:20:39;19.95;;;13.15;;
46355;SDS011;32066;49.474;11.106;2024-03-22T10:23:08;20.80;;;15.00;;
46355;SDS011;32066;49.474;11.106;2024-03-22T10:25:34;19.50;;;13.75;;
46355;SDS011;32066;49.474;11.106;2024-03-22T10:28:01;22.90;;;14.57;;
46355;SDS011;32066;49.474;11.106;2024-03-22T10:30:27;20.13;;;13.98;;
46355;SDS011;32066;49.474;11.106;2024-03-22T10:32:53;19.73;;;13.82;;
46355;SDS011;32066;49.474;11.106;2024-03-22T10:35:19;19.67;;;14.80;;
46355;SDS011;32066;49.474;11.106;2024-03-22T10:37:47;22.05;;;14.40;;
46355;SDS011;32066;49.474;11.106;2024-03-22T10:40:17;19.83;;;13.93;;
46355;SDS011;32066;49.474;11.106;2024-03-22T10:42:44;18.88;;;13.80;;
46355;SDS011;32066;49.474;11.106;2024-03-22T10:45:12;22.67;;;14.10;;
46355;SDS011;32066;49.474;11.106;2024-03-22T10:47:38;19.60;;;12.93;;
46355;SDS011;32066;49.474;11.106;2024-03-22T10:50:05;18.60;;;13.07;;
46355;SDS011;32066;49.474;11.106;2024-03-22T10:52:37;19.05;;;12.38;;
46355;SDS011;32066;49.474;11.106;2024-03-22T10:55:05;17.73;;;11.73;;
46355;SDS011;32066;49.474;11.106;2024-03-22T10:57:38;15.90;;;10.52;;
46355;SDS011;32066;49.474;11.106;2024-03-22T11:00:09;15.75;;;10.23;;
46355;SDS011;32066;49.474;11.106;2024-03-22T11:02:35;13.75;;;9.48;;
46355;SDS011;32066;49.474;11.106;2024-03-22T11:05:02;18.05;;;9.57;;
46355;SDS011;32066;49.474;11.106;2024-03-22T11:07:29;14.25;;;10.38;;
46355;SDS011;32066;49.474;11.106;2024-03-22T11:09:57;14.00;;;9.93;;
46355;SDS011;32066;49.474;11.106;2024-03-22T11:12:24;15.32;;;9.55;;
46355;SDS011;32066;49.474;11.106;2024-03-22T11:14:53;16.85;;;9.10;;
46355;SDS011;32066;49.474;11.106;2024-03-22T11:17:21;11.52;;;7.82;;
46355;SDS011;32066;49.474;11.106;2024-03-22T11:19:47;13.15;;;7.45;;
46355;SDS011;32066;49.474;11.106;2024-03-22T11:22:13;12.68;;;6.65;;
46355;SDS011;32066;49.474;11.106;2024-03-22T11:24:40;13.10;;;6.93;;
46355;SDS011;32066;49.474;11.106;2024-03-22T11:27:07;10.23;;;6.07;;
46355;SDS011;32066;49.474;11.106;2024-03-22T11:29:33;10.38;;;6.57;;
46355;SDS011;32066;49.474;11.106;2024-03-22T11:32:02;12.82;;;6.88;;
46355;SDS011;32066;49.474;11.106;2024-03-22T11:34:28;11.73;;;6.82;;
46355;SDS011;32066;49.474;11.106;2024-03-22T11:36:54;10.77;;;6.47;;
46355;SDS011;32066;49.474;11.106;2024-03-22T11:39:21;11.05;;;6.70;;
46355;SDS011;32066;49.474;11.106;2024-03-22T11:41:47;14.75;;;6.13;;
46355;SDS011;32066;49.474;11.106;2024-03-22T11:44:13;9.43;;;6.05;;
46355;SDS011;32066;49.474;11.106;2024-03-22T11:46:40;9.52;;;6.35;;
46355;SDS011;32066;49.474;11.106;2024-03-22T11:49:09;12.55;;;7.43;;
46355;SDS011;32066;49.474;11.106;2024-03-22T11:51:36;11.57;;;6.60;;
46355;SDS011;32066;49.474;11.106;2024-03-22T11:54:03;13.07;;;6.82;;
46355;SDS011;32066;49.474;11.106;2024-03-22T11:56:29;9.52;;;6.35;;
46355;SDS011;32066;49.474;11.106;2024-03-22T11:58:57;10.13;;;6.90;;
46355;SDS011;32066;49.474;11.106;2024-03-22T12:01:24;10.65;;;6.70;;
46355;SDS011;32066;49.474;11.106;2024-03-22T12:03:50;11.15;;;6.22;;
46355;SDS011;32066;49.474;11.106;2024-03-22T12:06:19;9.93;;;6.20;;
46355;SDS011;32066;49.474;11.106;2024-03-22T12:08:46;10.85;;;6.65;;
46355;SDS011;32066;49.474;11.106;2024-03-22T12:11:12;10.57;;;6.05;;
46355;SDS011;32066;49.474;11.106;2024-03-22T12:13:39;11.43;;;6.75;;
46355;SDS011;32066;49.474;11.106;2024-03-22T12:16:06;9.82;;;6.25;;
46355;SDS011;32066;49.474;11.106;2024-03-22T12:18:32;8.90;;;5.88;;
46355;SDS011;32066;49.474;11.106;2024-03-22T12:20:58;10.02;;;6.38;;
46355;SDS011;32066;49.474;11.106;2024-03-22T12:23:27;13.63;;;7.50;;
46355;SDS011;32066;49.474;11.106;2024-03-22T12:25:53;11.52;;;7.82;;
46355;SDS011;32066;49.474;11.106;2024-03-22T12:28:20;15.20;;;8.13;;
46355;SDS011;32066;49.474;11.106;2024-03-22T12:30:47;13.25;;;7.63;;
46355;SDS011;32066;49.474;11.106;2024-03-22T12:33:13;10.85;;;7.38;;
46355;SDS011;32066;49.474;11.106;2024-03-22T12:35:39;11.55;;;8.60;;
46355;SDS011;32066;49.474;11.106;2024-03-22T12:38:06;15.32;;;8.57;;
46355;SDS011;32066;49.474;11.106;2024-03-22T12:40:35;12.80;;;8.48;;
46355;SDS011;32066;49.474;11.106;2024-03-22T12:43:01;15.18;;;9.32;;
46355;SDS011;32066;49.474;11.106;2024-03-22T12:45:27;12.88;;;8.38;;
46355;SDS011;32066;49.474;11.106;2024-03-22T12:47:53;13.20;;;8.45;;
46355;SDS011;32066;49.474;11.106;2024-03-22T12:50:19;12.25;;;7.90;;
46355;SDS011;32066;49.474;11.106;2024-03-22T12:52:45;10.25;;;7.15;;
46355;SDS011;32066;49.474;11.106;2024-03-22T12:55:11;11.80;;;6.72;;
46355;SDS011;32066;49.474;11.106;2024-03-22T12:57:40;11.50;;;7.20;;
46355;SDS011;32066;49.474;11.106;2024-03-22T13:00:07;9.82;;;6.40;;
46355;SDS011;32066;49.474;11.106;2024-03-22T13:02:34;10.75;;;7.32;;
46355;SDS011;32066;49.474;11.106;2024-03-22T13:05:00;12.35;;;7.03;;
46355;SDS011;32066;49.474;11.106;2024-03-22T13:07:26;9.43;;;6.28;;
46355;SDS011;32066;49.474;11.106;2024-03-22T13:09:53;11.93;;;7.10;;
46355;SDS011;32066;49.474;11.106;2024-03-22T13:12:19;8.57;;;5.93;;
46355;SDS011;32066;49.474;11.106;2024-03-22T13:14:47;9.48;;;5.75;;
46355;SDS011;32066;49.474;11.106;2024-03-22T13:17:14;8.00;;;5.15;;
46355;SDS011;32066;49.474;11.106;2024-03-22T13:19:40;8.13;;;4.78;;
46355;SDS011;32066;49.474;11.106;2024-03-22T13:22:06;9.70;;;5.10;;
46355;SDS011;32066;49.474;11.106;2024-03-22T13:24:32;10.52;;;5.38;;
46355;SDS011;32066;49.474;11.106;2024-03-22T13:26:58;10.80;;;6.05;;
46355;SDS011;32066;49.474;11.106;2024-03-22T13:29:24;10.07;;;6.22;;
46355;SDS011;32066;49.474;11.106;2024-03-22T13:31:52;9.15;;;6.43;;
46355;SDS011;32066;49.474;11.106;2024-03-22T13:34:19;9.08;;;6.22;;
46355;SDS011;32066;49.474;11.106;2024-03-22T13:36:45;10.50;;;6.55;;
46355;SDS011;32066;49.474;11.106;2024-03-22T13:39:11;10.95;;;6.60;;
46355;SDS011;32066;49.474;11.106;2024-03-22T13:41:37;9.77;;;5.57;;
46355;SDS011;32066;49.474;11.106;2024-03-22T13:44:03;9.65;;;6.00;;
46355;SDS011;32066;49.474;11.106;2024-03-22T13:46:29;10.52;;;6.10;;
46355;SDS011;32066;49.474;11.106;2024-03-22T13:48:58;9.68;;;5.78;;
46355;SDS011;32066;49.474;11.106;2024-03-22T13:51:24;8.70;;;5.63;;
46355;SDS011;32066;49.474;11.106;2024-03-22T13:53:50;8.43;;;5.53;;
46355;SDS011;32066;49.474;11.106;2024-03-22T13:56:16;9.05;;;6.10;;
46355;SDS011;32066;49.474;11.106;2024-03-22T13:58:42;6.60;;;4.72;;
46355;SDS011;32066;49.474;11.106;2024-03-22T14:01:08;9.15;;;4.38;;
46355;SDS011;32066;49.474;11.106;2024-03-22T14:03:34;10.05;;;4.32;;
46355;SDS011;32066;49.474;11.106;2024-03-22T14:06:03;7.70;;;4.38;;
46355;SDS011;32066;49.474;11.106;2024-03-22T14:08:29;7.15;;;4.32;;
46355;SDS011;32066;49.474;11.106;2024-03-22T14:10:55;7.30;;;4.20;;